createdAt,value
2023-04-10T00:01:54.642Z,98.40
2023-04-10T00:04:23.888Z,98.50
2023-04-10T00:06:51.810Z,98.60
2023-04-10T00:09:19.734Z,98.70
2023-04-10T00:11:47.739Z,98.70
2023-04-10T00:14:15.654Z,98.60
2023-04-10T00:16:43.603Z,98.60
2023-04-10T00:19:11.545Z,98.80
2023-04-10T00:21:41.181Z,98.80
2023-04-10T00:24:09.357Z,98.90
2023-04-10T00:26:37.531Z,99.00
2023-04-10T00:29:05.381Z,99.10
2023-04-10T00:31:33.473Z,99.10
2023-04-10T00:34:01.368Z,99.10
2023-04-10T00:36:29.246Z,99.20
2023-04-10T00:38:59.452Z,99.30
2023-04-10T00:41:27.454Z,99.40
2023-04-10T00:43:57.604Z,99.40
2023-04-10T00:46:25.981Z,99.40
2023-04-10T00:48:54.375Z,99.30
2023-04-10T00:51:23.135Z,99.40
2023-04-10T00:53:52.418Z,99.40
2023-04-10T00:56:22.712Z,99.40
2023-04-10T00:58:50.726Z,99.40
2023-04-10T01:01:19.028Z,99.30
2023-04-10T01:03:47.207Z,99.50
2023-04-10T01:06:26.602Z,99.50
2023-04-10T01:09:01.798Z,99.60
2023-04-10T01:11:41.671Z,99.90
2023-04-10T01:14:17.678Z,99.70
2023-04-10T01:16:50.116Z,99.80
2023-04-10T01:19:32.051Z,99.90
2023-04-10T01:22:03.476Z,99.90
2023-04-10T01:24:46.678Z,99.90
2023-04-10T01:27:32.719Z,99.90
2023-04-10T01:30:03.827Z,99.90
2023-04-10T01:32:35.050Z,99.90
2023-04-10T01:35:08.505Z,99.90
2023-04-10T01:37:41.719Z,99.90
2023-04-10T01:40:13.983Z,99.90
2023-04-10T01:42:48.626Z,99.90
2023-04-10T01:45:21.720Z,99.90
2023-04-10T01:47:49.775Z,99.90
2023-04-10T01:50:18.711Z,99.90
2023-04-10T01:52:47.480Z,99.90
2023-04-10T01:55:16.304Z,99.90
2023-04-10T01:57:44.454Z,99.90
2023-04-10T02:00:13.551Z,99.90
2023-04-10T02:02:43.846Z,99.90
2023-04-10T02:05:12.340Z,99.90
2023-04-10T02:07:47.483Z,99.90
2023-04-10T02:10:22.007Z,99.90
2023-04-10T02:12:54.047Z,99.90
2023-04-10T02:15:24.529Z,99.90
2023-04-10T02:17:55.212Z,99.90
2023-04-10T02:20:24.628Z,99.90
2023-04-10T02:22:53.426Z,99.90
2023-04-10T02:25:21.595Z,99.90
2023-04-10T02:27:49.508Z,99.90
2023-04-10T02:30:17.538Z,99.90
2023-04-10T02:32:45.432Z,99.90
2023-04-10T02:35:14.687Z,99.90
2023-04-10T02:37:43.274Z,99.90
2023-04-10T02:40:11.919Z,99.90
2023-04-10T02:42:39.829Z,99.90
2023-04-10T02:45:09.200Z,99.90
2023-04-10T02:47:37.291Z,99.90
2023-04-10T02:50:05.981Z,99.90
2023-04-10T02:52:35.290Z,99.90
2023-04-10T02:55:03.225Z,99.90
2023-04-10T02:57:31.078Z,99.90
2023-04-10T02:59:58.941Z,99.90
2023-04-10T03:02:27.970Z,99.90
2023-04-10T03:04:56.036Z,99.90
2023-04-10T03:07:23.954Z,99.90
2023-04-10T03:09:53.170Z,99.90
2023-04-10T03:12:21.397Z,99.90
2023-04-10T03:14:49.329Z,99.90
2023-04-10T03:17:17.255Z,99.90
2023-04-10T03:19:45.115Z,99.90
2023-04-10T03:22:12.976Z,99.90
2023-04-10T03:24:41.089Z,99.90
2023-04-10T03:27:10.289Z,99.90
2023-04-10T03:29:38.141Z,99.90
2023-04-10T03:32:06.429Z,99.90
2023-04-10T03:34:34.320Z,99.90
2023-04-10T03:37:03.086Z,99.90
2023-04-10T03:39:31.003Z,99.90
2023-04-10T03:41:58.843Z,99.90
2023-04-10T03:44:28.073Z,99.90
2023-04-10T03:46:56.024Z,99.90
2023-04-10T03:49:23.911Z,99.90
2023-04-10T03:51:52.950Z,99.90
2023-04-10T03:54:20.877Z,99.90
2023-04-10T03:56:48.724Z,99.90
2023-04-10T03:59:16.521Z,99.90
2023-04-10T04:01:45.892Z,99.90
2023-04-10T04:04:13.951Z,99.90
2023-04-10T04:06:42.071Z,99.90
2023-04-10T04:09:09.965Z,99.90
2023-04-10T04:11:38.512Z,99.90
2023-04-10T04:14:06.345Z,99.90
2023-04-10T04:16:34.366Z,99.90
2023-04-10T04:19:03.599Z,99.90
2023-04-10T04:21:31.578Z,99.90
2023-04-10T04:23:59.393Z,99.90
2023-04-10T04:26:27.236Z,99.90
2023-04-10T04:28:55.434Z,99.90
2023-04-10T04:31:24.324Z,99.90
2023-04-10T04:33:52.697Z,99.90
2023-04-10T04:36:22.108Z,99.90
2023-04-10T04:38:50.014Z,99.90
2023-04-10T04:41:19.437Z,99.90
2023-04-10T04:43:49.440Z,99.90
2023-04-10T04:46:17.394Z,99.90
2023-04-10T04:48:45.289Z,99.90
2023-04-10T04:51:13.116Z,99.90
2023-04-10T04:53:42.383Z,99.90
2023-04-10T04:56:10.708Z,99.90
2023-04-10T04:58:38.674Z,99.90
2023-04-10T05:01:07.178Z,99.90
2023-04-10T05:03:35.457Z,99.90
2023-04-10T05:06:03.465Z,99.90
2023-04-10T05:08:31.446Z,99.90
2023-04-10T05:11:00.741Z,99.90
2023-04-10T05:13:28.651Z,99.90
2023-04-10T05:15:56.578Z,99.90
2023-04-10T05:18:24.544Z,99.90
2023-04-10T05:20:52.595Z,99.90
2023-04-10T05:23:20.751Z,99.90
2023-04-10T05:25:48.633Z,99.90
2023-04-10T05:28:17.885Z,99.90
2023-04-10T05:30:45.877Z,99.90
2023-04-10T05:33:13.776Z,99.90
2023-04-10T05:35:41.698Z,99.90
2023-04-10T05:38:09.613Z,99.90
2023-04-10T05:40:37.507Z,99.90
2023-04-10T05:43:05.392Z,99.90
2023-04-10T05:45:34.576Z,99.90
2023-04-10T05:48:02.492Z,99.90
2023-04-10T05:50:30.657Z,99.90
2023-04-10T05:52:58.695Z,99.90
2023-04-10T05:55:26.561Z,99.90
2023-04-10T05:57:54.483Z,99.90
2023-04-10T06:00:22.465Z,99.90
2023-04-10T06:02:51.794Z,99.90
2023-04-10T06:05:19.983Z,99.90
2023-04-10T06:07:48.053Z,99.90
2023-04-10T06:10:16.001Z,99.90
2023-04-10T06:12:43.941Z,99.90
2023-04-10T06:15:12.532Z,99.90
2023-04-10T06:17:44.213Z,99.90
2023-04-10T06:20:14.154Z,99.90
2023-04-10T06:22:42.053Z,99.90
2023-04-10T06:25:10.848Z,99.90
2023-04-10T06:27:38.885Z,99.90
2023-04-10T06:30:08.358Z,99.90
2023-04-10T06:32:36.371Z,99.90
2023-04-10T06:35:04.418Z,99.90
2023-04-10T06:37:33.712Z,99.90
2023-04-10T06:40:04.850Z,99.90
2023-04-10T06:42:32.782Z,99.90
2023-04-10T06:45:00.731Z,99.90
2023-04-10T06:47:28.917Z,99.90
2023-04-10T06:49:56.916Z,99.90
2023-04-10T06:52:24.789Z,99.90
2023-04-10T06:54:54.107Z,99.90
2023-04-10T06:57:22.003Z,99.90
2023-04-10T06:59:49.959Z,99.90
2023-04-10T07:02:17.896Z,99.90
2023-04-10T07:04:45.853Z,99.90
2023-04-10T07:07:15.823Z,99.90
2023-04-10T07:09:43.779Z,99.90
2023-04-10T07:12:13.044Z,99.90
2023-04-10T07:14:41.359Z,99.90
2023-04-10T07:17:09.458Z,99.90
2023-04-10T07:19:38.105Z,99.90
2023-04-10T07:22:06.058Z,99.90
2023-04-10T07:24:33.946Z,99.90
2023-04-10T07:27:01.973Z,99.90
2023-04-10T07:29:31.629Z,99.90
2023-04-10T07:31:59.671Z,99.90
2023-04-10T07:34:27.636Z,99.90
2023-04-10T07:36:55.520Z,99.90
2023-04-10T07:39:23.373Z,99.90
2023-04-10T07:41:51.272Z,99.90
2023-04-10T07:44:19.912Z,98.90
2023-04-10T07:46:49.191Z,97.60
2023-04-10T07:49:17.139Z,96.50
2023-04-10T07:51:45.068Z,95.50
2023-04-10T07:54:12.922Z,95.50
2023-04-10T07:56:40.941Z,94.40
2023-04-10T07:59:09.120Z,94.40
2023-04-10T08:01:37.029Z,94.10
2023-04-10T08:04:06.676Z,93.20
2023-04-10T08:06:34.695Z,92.90
2023-04-10T08:09:02.647Z,92.80
2023-04-10T08:11:31.846Z,92.70
2023-04-10T08:14:02.573Z,92.20
2023-04-10T08:16:33.286Z,91.90
2023-04-10T08:19:02.651Z,91.30
2023-04-10T08:21:32.633Z,91.00
2023-04-10T08:24:02.731Z,91.10
2023-04-10T08:26:30.872Z,90.40
2023-04-10T08:29:00.737Z,90.00
2023-04-10T08:31:29.956Z,90.60
2023-04-10T08:33:59.141Z,88.80
2023-04-10T08:36:27.682Z,86.80
2023-04-10T08:38:56.950Z,86.80
2023-04-10T08:41:24.977Z,85.60
2023-04-10T08:43:53.283Z,85.10
2023-04-10T08:46:24.752Z,84.20
2023-04-10T08:48:56.178Z,83.40
2023-04-10T08:51:29.973Z,83.00
2023-04-10T08:54:05.017Z,82.30
2023-04-10T08:56:34.479Z,81.00
2023-04-10T08:59:03.553Z,80.60
2023-04-10T09:01:31.798Z,78.70
2023-04-10T09:04:00.205Z,78.00
2023-04-10T09:06:28.608Z,77.90
2023-04-10T09:08:56.473Z,77.50
2023-04-10T09:11:25.798Z,76.30
2023-04-10T09:13:53.812Z,77.20
2023-04-10T09:16:30.225Z,76.50
2023-04-10T09:18:59.810Z,75.90
2023-04-10T09:21:28.034Z,75.70
2023-04-10T09:24:02.227Z,75.70
2023-04-10T09:26:33.358Z,74.80
2023-04-10T09:29:02.923Z,74.20
2023-04-10T09:31:33.057Z,73.40
2023-04-10T09:34:12.949Z,72.40
2023-04-10T09:36:42.303Z,70.80
2023-04-10T09:39:11.937Z,70.10
2023-04-10T09:41:52.053Z,70.10
2023-04-10T09:44:30.097Z,69.80
2023-04-10T09:46:58.225Z,68.50
2023-04-10T09:49:26.261Z,68.00
2023-04-10T09:51:54.085Z,66.90
2023-04-10T09:54:37.081Z,67.10
2023-04-10T09:57:08.234Z,66.80
2023-04-10T09:59:41.142Z,66.90
2023-04-10T10:02:10.514Z,67.10
2023-04-10T10:04:40.565Z,65.00
2023-04-10T10:07:08.890Z,64.20
2023-04-10T10:09:37.948Z,63.90
2023-04-10T10:12:09.113Z,63.60
2023-04-10T10:14:42.820Z,65.30
2023-04-10T10:17:13.423Z,62.30
2023-04-10T10:19:47.249Z,62.60
2023-04-10T10:22:15.518Z,63.00
2023-04-10T10:24:48.232Z,63.30
2023-04-10T10:27:19.070Z,62.20
2023-04-10T10:29:49.830Z,60.80
2023-04-10T10:32:19.227Z,60.60
2023-04-10T10:34:47.302Z,59.90
2023-04-10T10:37:16.110Z,59.90
2023-04-10T10:39:50.661Z,59.70
2023-04-10T10:42:27.741Z,59.40
2023-04-10T10:45:04.971Z,58.50
2023-04-10T10:47:35.087Z,58.40
2023-04-10T10:50:04.435Z,58.80
2023-04-10T10:52:40.243Z,59.50
2023-04-10T10:55:35.001Z,60.00
2023-04-10T10:58:06.187Z,58.80
2023-04-10T11:01:10.267Z,57.90
2023-04-10T11:03:39.143Z,57.80
2023-04-10T11:06:08.692Z,57.50
2023-04-10T11:08:55.372Z,56.30
2023-04-10T11:11:25.011Z,56.10
2023-04-10T11:14:17.940Z,57.00
2023-04-10T11:16:48.203Z,57.30
2023-04-10T11:19:19.184Z,57.00
2023-04-10T11:22:08.943Z,56.80
2023-04-10T11:24:59.637Z,56.90
2023-04-10T11:27:48.596Z,55.90
2023-04-10T11:30:35.361Z,56.60
2023-04-10T11:33:04.797Z,57.00
2023-04-10T11:35:33.763Z,56.70
2023-04-10T11:38:16.364Z,57.00
2023-04-10T11:41:05.363Z,57.10
2023-04-10T11:43:35.110Z,56.30
2023-04-10T11:46:07.572Z,56.40
2023-04-10T11:48:36.965Z,56.20
2023-04-10T11:51:14.208Z,56.70
2023-04-10T11:53:42.694Z,55.50
2023-04-10T11:56:18.460Z,54.70
2023-04-10T11:58:46.374Z,53.80
2023-04-10T12:01:15.632Z,53.80
2023-04-10T12:03:45.039Z,52.50
2023-04-10T12:06:16.249Z,53.30
2023-04-10T12:08:47.503Z,54.30
2023-04-10T12:11:16.012Z,53.80
2023-04-10T12:13:43.925Z,52.70
2023-04-10T12:16:12.914Z,52.70
2023-04-10T12:18:42.877Z,53.20
2023-04-10T12:21:11.106Z,52.00
2023-04-10T12:23:40.396Z,50.30
2023-04-10T12:26:11.145Z,49.00
2023-04-10T12:28:40.305Z,49.10
2023-04-10T12:31:09.247Z,47.30
2023-04-10T12:33:37.307Z,45.70
2023-04-10T12:36:07.162Z,46.40
2023-04-10T12:38:42.959Z,47.40
2023-04-10T12:41:12.253Z,48.10
2023-04-10T12:43:41.867Z,48.10
2023-04-10T12:46:11.221Z,47.50
2023-04-10T12:48:39.335Z,47.60
2023-04-10T12:51:08.992Z,47.90
2023-04-10T12:53:45.202Z,48.70
2023-04-10T12:56:14.737Z,47.80
2023-04-10T12:58:43.027Z,47.70
2023-04-10T13:01:11.159Z,47.80
2023-04-10T13:03:39.509Z,48.10
2023-04-10T13:06:09.538Z,49.10
2023-04-10T13:08:37.392Z,48.70
2023-04-10T13:11:07.046Z,48.60
2023-04-10T13:13:35.067Z,48.30
2023-04-10T13:16:03.041Z,48.90
2023-04-10T13:18:30.896Z,49.90
2023-04-10T13:20:58.747Z,50.10
2023-04-10T13:23:28.060Z,49.80
2023-04-10T13:25:56.751Z,50.30
2023-04-10T13:28:24.640Z,50.00
2023-04-10T13:30:52.967Z,49.90
2023-04-10T13:33:20.818Z,50.20
2023-04-10T13:35:48.712Z,50.10
2023-04-10T13:38:16.702Z,50.00
2023-04-10T13:40:47.066Z,50.70
2023-04-10T13:43:15.199Z,50.60
2023-04-10T13:45:43.088Z,50.80
2023-04-10T13:48:11.056Z,51.00
2023-04-10T13:50:39.068Z,50.80
2023-04-10T13:53:09.015Z,49.80
2023-04-10T13:55:37.971Z,49.90
2023-04-10T13:58:07.900Z,50.20
2023-04-10T14:00:35.750Z,50.40
2023-04-10T14:03:03.820Z,50.30
2023-04-10T14:05:31.841Z,50.00
2023-04-10T14:07:59.680Z,49.50
2023-04-10T14:10:27.615Z,50.00
2023-04-10T14:12:55.848Z,50.20
2023-04-10T14:15:25.086Z,50.40
2023-04-10T14:17:52.984Z,50.80
2023-04-10T14:20:21.045Z,50.50
2023-04-10T14:22:48.989Z,50.70
2023-04-10T14:25:17.058Z,50.30
2023-04-10T14:27:45.525Z,50.50
2023-04-10T14:30:13.855Z,50.50
2023-04-10T14:32:43.921Z,51.50
2023-04-10T14:35:12.218Z,51.80
2023-04-10T14:37:40.249Z,51.00
2023-04-10T14:40:09.972Z,51.20
2023-04-10T14:42:37.854Z,51.30
2023-04-10T14:45:06.567Z,51.30
2023-04-10T14:47:35.931Z,51.90
2023-04-10T14:50:05.874Z,51.80
2023-04-10T14:52:33.740Z,52.10
2023-04-10T14:55:01.725Z,52.10
2023-04-10T14:57:30.418Z,52.50
2023-04-10T15:00:00.352Z,52.90
2023-04-10T15:02:29.889Z,51.70
2023-04-10T15:04:57.906Z,51.70
2023-04-10T15:07:28.243Z,52.40
2023-04-10T15:09:57.710Z,53.10
2023-04-10T15:12:25.969Z,53.00
2023-04-10T15:14:53.866Z,53.40
2023-04-10T15:17:24.031Z,53.30
2023-04-10T15:19:52.199Z,52.20
2023-04-10T15:22:20.127Z,51.50
2023-04-10T15:24:50.945Z,52.50
2023-04-10T15:27:20.927Z,51.50
2023-04-10T15:29:48.921Z,51.30
2023-04-10T15:32:16.849Z,51.50
2023-04-10T15:34:45.658Z,52.30
2023-04-10T15:37:13.619Z,53.10
2023-04-10T15:39:41.562Z,54.10
2023-04-10T15:42:10.828Z,53.50
2023-04-10T15:44:38.700Z,53.60
2023-04-10T15:47:06.650Z,53.00
2023-04-10T15:49:38.282Z,53.00
2023-04-10T15:52:07.027Z,53.10
2023-04-10T15:54:35.429Z,53.20
2023-04-10T15:57:03.663Z,53.20
2023-04-10T15:59:33.994Z,53.30
2023-04-10T16:02:02.004Z,53.30
2023-04-10T16:04:30.153Z,54.00
2023-04-10T16:06:58.087Z,53.30
2023-04-10T16:09:26.825Z,53.60
2023-04-10T16:11:56.016Z,53.80
2023-04-10T16:14:24.134Z,54.10
2023-04-10T16:16:53.397Z,54.30
2023-04-10T16:19:21.295Z,53.80
2023-04-10T16:21:50.125Z,54.50
2023-04-10T16:24:18.299Z,54.90
2023-04-10T16:26:46.145Z,54.70
2023-04-10T16:29:16.026Z,55.10
2023-04-10T16:31:44.353Z,55.10
2023-04-10T16:34:13.800Z,55.20
2023-04-10T16:36:41.973Z,55.40
2023-04-10T16:39:10.246Z,55.30
2023-04-10T16:41:38.503Z,55.60
2023-04-10T16:44:07.088Z,55.40
2023-04-10T16:46:35.245Z,55.30
2023-04-10T16:49:03.654Z,55.90
2023-04-10T16:51:33.366Z,55.90
2023-04-10T16:54:01.498Z,55.90
2023-04-10T16:56:29.850Z,56.00
2023-04-10T16:58:58.164Z,56.00
2023-04-10T17:01:26.595Z,56.20
2023-04-10T17:03:55.371Z,56.00
2023-04-10T17:06:23.638Z,56.20
2023-04-10T17:08:53.697Z,56.60
2023-04-10T17:11:21.972Z,56.30
2023-04-10T17:13:49.909Z,56.00
2023-04-10T17:16:17.802Z,56.20
2023-04-10T17:18:45.710Z,56.40
2023-04-10T17:21:14.310Z,56.60
2023-04-10T17:23:42.430Z,56.20
2023-04-10T17:26:16.028Z,56.50
2023-04-10T17:28:46.231Z,56.30
2023-04-10T17:31:14.450Z,56.40
2023-04-10T17:33:42.835Z,56.70
2023-04-10T17:36:12.264Z,56.90
2023-04-10T17:38:41.118Z,56.80
2023-04-10T17:41:09.846Z,57.00
2023-04-10T17:43:40.193Z,56.90
2023-04-10T17:46:08.304Z,56.80
2023-04-10T17:48:36.260Z,57.10
2023-04-10T17:51:06.652Z,57.20
2023-04-10T17:53:34.541Z,57.30
2023-04-10T17:56:02.463Z,57.20
2023-04-10T17:58:30.713Z,57.30
2023-04-10T18:01:00.182Z,57.50
2023-04-10T18:03:28.134Z,57.50
2023-04-10T18:05:56.089Z,57.50
2023-04-10T18:08:24.090Z,57.50
2023-04-10T18:10:51.979Z,57.50
2023-04-10T18:13:19.970Z,57.50
2023-04-10T18:15:47.876Z,57.70
2023-04-10T18:18:17.096Z,57.70
2023-04-10T18:20:44.971Z,57.60
2023-04-10T18:23:12.891Z,57.80
2023-04-10T18:25:40.836Z,57.80
2023-04-10T18:28:15.274Z,57.80
2023-04-10T18:30:44.417Z,57.80
2023-04-10T18:33:12.716Z,58.00
2023-04-10T18:35:42.168Z,57.90
2023-04-10T18:38:10.195Z,58.00
2023-04-10T18:40:38.082Z,58.00
2023-04-10T18:43:06.020Z,58.10
2023-04-10T18:45:34.879Z,58.30
2023-04-10T18:48:02.891Z,58.20
2023-04-10T18:50:31.406Z,58.30
2023-04-10T18:53:00.695Z,58.50
2023-04-10T18:55:28.612Z,58.40
2023-04-10T18:57:56.509Z,58.30
2023-04-10T19:00:24.467Z,58.60
2023-04-10T19:02:52.510Z,58.60
2023-04-10T19:05:20.539Z,58.50
2023-04-10T19:08:00.688Z,58.80
2023-04-10T19:10:32.987Z,58.60
2023-04-10T19:13:00.923Z,58.60
2023-04-10T19:15:28.966Z,58.70
2023-04-10T19:17:56.989Z,58.70
2023-04-10T19:20:49.061Z,58.80
2023-04-10T19:23:13.101Z,58.80
2023-04-10T19:25:43.704Z,58.80
2023-04-10T19:28:11.642Z,58.80
2023-04-10T19:30:39.617Z,58.80
2023-04-10T19:33:07.522Z,58.30
2023-04-10T19:35:35.498Z,58.50
2023-04-10T19:38:03.448Z,58.40
2023-04-10T19:40:31.839Z,58.50
2023-04-10T19:43:02.028Z,58.30
2023-04-10T19:45:32.276Z,58.20
2023-04-10T19:48:00.512Z,57.80
2023-04-10T19:50:30.491Z,57.90
2023-04-10T19:52:59.425Z,57.70
2023-04-10T19:55:27.869Z,57.70
2023-04-10T19:57:55.975Z,57.70
2023-04-10T20:00:25.328Z,58.20
2023-04-10T20:02:53.331Z,57.90
2023-04-10T20:05:21.385Z,58.70
2023-04-10T20:07:49.452Z,59.60
2023-04-10T20:10:17.292Z,60.30
2023-04-10T20:12:45.237Z,60.70
2023-04-10T20:15:13.492Z,60.90
2023-04-10T20:17:42.856Z,61.50
2023-04-10T20:20:12.589Z,61.60
2023-04-10T20:22:40.485Z,62.20
2023-04-10T20:25:09.281Z,62.20
2023-04-10T20:27:37.099Z,62.60
2023-04-10T20:30:05.924Z,63.50
2023-04-10T20:32:33.862Z,63.90
2023-04-10T20:35:03.146Z,64.20
2023-04-10T20:37:31.001Z,64.10
2023-04-10T20:39:58.898Z,64.40
2023-04-10T20:42:26.740Z,64.50
2023-04-10T20:44:55.413Z,64.50
2023-04-10T20:47:23.298Z,66.10
2023-04-10T20:49:51.206Z,65.60
2023-04-10T20:52:20.470Z,65.80
2023-04-10T20:54:48.381Z,65.50
2023-04-10T20:57:16.275Z,65.60
2023-04-10T20:59:44.249Z,65.20
2023-04-10T21:02:13.191Z,65.50
2023-04-10T21:04:41.156Z,66.50
2023-04-10T21:07:09.053Z,67.60
2023-04-10T21:09:38.315Z,68.40
2023-04-10T21:12:06.337Z,68.40
2023-04-10T21:14:35.773Z,69.20
2023-04-10T21:17:04.049Z,68.80
2023-04-10T21:19:31.962Z,69.40
2023-04-10T21:21:59.866Z,69.30
2023-04-10T21:24:29.325Z,69.30
2023-04-10T21:26:58.618Z,69.80
2023-04-10T21:29:26.539Z,68.50
2023-04-10T21:31:54.473Z,68.60
2023-04-10T21:34:22.464Z,68.90
2023-04-10T21:36:50.364Z,69.30
2023-04-10T21:39:18.245Z,69.60
2023-04-10T21:41:46.145Z,70.10
2023-04-10T21:44:15.442Z,70.00
2023-04-10T21:46:43.459Z,69.90
2023-04-10T21:49:11.459Z,70.30
2023-04-10T21:51:40.474Z,70.70
2023-04-10T21:54:08.456Z,70.90
2023-04-10T21:56:38.659Z,70.90
2023-04-10T21:59:06.706Z,70.90
2023-04-10T22:01:36.154Z,71.10
2023-04-10T22:04:04.431Z,71.40
2023-04-10T22:06:32.787Z,70.80
2023-04-10T22:09:00.657Z,70.90
2023-04-10T22:11:28.551Z,70.90
2023-04-10T22:14:00.147Z,70.90
2023-04-10T22:16:30.787Z,70.80
2023-04-10T22:19:00.418Z,70.90
2023-04-10T22:21:28.363Z,71.00
2023-04-10T22:23:56.271Z,71.30
2023-04-10T22:26:24.602Z,71.40
2023-04-10T22:28:52.823Z,71.60
2023-04-10T22:31:21.311Z,71.80
2023-04-10T22:33:50.153Z,71.90
2023-04-10T22:36:19.335Z,71.70
2023-04-10T22:38:47.215Z,71.50
2023-04-10T22:41:15.137Z,71.70
2023-04-10T22:43:43.038Z,71.50
2023-04-10T22:46:11.011Z,71.40
2023-04-10T22:48:39.061Z,71.50
2023-04-10T22:51:11.504Z,71.30
2023-04-10T22:53:41.254Z,71.10
2023-04-10T22:56:10.527Z,71.10
2023-04-10T22:58:39.291Z,71.20
2023-04-10T23:01:08.229Z,71.00
2023-04-10T23:03:36.561Z,70.80
2023-04-10T23:06:04.863Z,70.80
2023-04-10T23:08:32.848Z,70.70
2023-04-10T23:11:02.140Z,70.90
2023-04-10T23:13:30.040Z,70.70
2023-04-10T23:15:57.933Z,70.60
2023-04-10T23:18:25.858Z,70.60
2023-04-10T23:20:53.735Z,70.30
2023-04-10T23:23:21.598Z,70.30
2023-04-10T23:25:58.293Z,70.50
2023-04-10T23:28:28.382Z,70.70
2023-04-10T23:30:56.339Z,71.00
2023-04-10T23:33:24.208Z,71.20
2023-04-10T23:35:52.118Z,71.40
2023-04-10T23:38:21.094Z,71.70
2023-04-10T23:40:49.134Z,72.00
2023-04-10T23:43:16.955Z,72.40
2023-04-10T23:45:46.459Z,73.00
2023-04-10T23:48:14.363Z,73.20
2023-04-10T23:50:42.266Z,73.40
2023-04-10T23:53:10.350Z,74.60
2023-04-10T23:55:40.205Z,74.10
2023-04-10T23:58:08.080Z,74.50
